createdAt,value
2018-07-20T00:00:17.310Z,73.07
2018-07-20T00:01:28.010Z,72.49
2018-07-20T00:02:36.084Z,73.65
2018-07-20T00:03:44.149Z,73.55
2018-07-20T00:04:52.409Z,73.74
2018-07-20T00:06:00.474Z,73.74
2018-07-20T00:07:08.550Z,74.22
2018-07-20T00:08:16.619Z,73.93
2018-07-20T00:09:24.686Z,73.65
2018-07-20T00:10:32.745Z,73.74
2018-07-20T00:11:41.013Z,72.64
2018-07-20T00:12:49.074Z,73.26
2018-07-20T00:13:57.160Z,74.02
2018-07-20T00:15:05.202Z,73.61
2018-07-20T00:16:13.284Z,73.32
2018-07-20T00:17:21.361Z,73.70
2018-07-20T00:18:29.417Z,73.80
2018-07-20T00:19:37.488Z,73.51
2018-07-20T00:20:45.544Z,73.61
2018-07-20T00:21:53.625Z,73.99
2018-07-20T00:23:01.700Z,73.99
2018-07-20T00:24:09.752Z,74.47
2018-07-20T00:25:17.826Z,73.99
2018-07-20T00:26:25.870Z,74.18
2018-07-20T00:27:33.945Z,74.08
2018-07-20T00:28:42.223Z,74.47
2018-07-20T00:29:50.299Z,74.57
2018-07-20T00:30:58.364Z,74.08
2018-07-20T00:32:06.437Z,73.90
2018-07-20T00:33:14.491Z,74.57
2018-07-20T00:34:22.550Z,74.66
2018-07-20T00:35:30.633Z,74.47
2018-07-20T00:36:38.692Z,74.27
2018-07-20T00:37:46.766Z,74.18
2018-07-20T00:38:55.012Z,74.08
2018-07-20T00:40:03.093Z,74.27
2018-07-20T00:41:11.198Z,74.27
2018-07-20T00:42:19.865Z,74.18
2018-07-20T00:43:27.291Z,74.57
2018-07-20T00:44:35.353Z,74.66
2018-07-20T00:45:43.434Z,74.95
2018-07-20T00:46:51.494Z,75.23
2018-07-20T00:47:59.552Z,75.10
2018-07-20T00:49:07.632Z,75.33
2018-07-20T00:50:15.668Z,75.04
2018-07-20T00:51:23.755Z,75.04
2018-07-20T00:52:31.829Z,75.58
2018-07-20T00:53:43.137Z,75.77
2018-07-20T00:54:48.000Z,75.87
2018-07-20T00:55:56.016Z,75.87
2018-07-20T00:57:04.374Z,75.58
2018-07-20T00:58:12.159Z,75.77
2018-07-20T00:59:20.217Z,75.39
2018-07-20T01:00:36.811Z,75.87
2018-07-20T01:01:36.350Z,75.68
2018-07-20T01:02:44.420Z,75.77
2018-07-20T01:03:52.490Z,75.87
2018-07-20T01:05:00.556Z,75.58
2018-07-20T01:06:08.632Z,75.77
2018-07-20T01:07:16.707Z,76.35
2018-07-20T01:08:24.792Z,76.54
2018-07-20T01:09:32.846Z,75.96
2018-07-20T01:10:40.921Z,75.77
2018-07-20T01:11:48.962Z,76.25
2018-07-20T01:12:57.248Z,76.35
2018-07-20T01:14:06.338Z,76.44
2018-07-20T01:15:13.380Z,75.58
2018-07-20T01:17:06.824Z,75.87
2018-07-20T01:17:29.627Z,75.96
2018-07-20T01:18:37.600Z,75.77
2018-07-20T01:19:45.645Z,75.87
2018-07-20T01:20:53.753Z,76.44
2018-07-20T01:22:01.801Z,76.15
2018-07-20T01:23:09.866Z,76.64
2018-07-20T01:24:17.933Z,76.15
2018-07-20T01:25:27.610Z,77.11
2018-07-20T01:26:35.662Z,77.59
2018-07-20T01:27:43.735Z,77.36
2018-07-20T01:28:51.843Z,77.31
2018-07-20T01:29:59.881Z,77.65
2018-07-20T01:31:08.217Z,78.03
2018-07-20T01:32:15.993Z,77.65
2018-07-20T01:33:24.101Z,78.13
2018-07-20T01:34:32.156Z,78.42
2018-07-20T01:35:40.228Z,78.03
2018-07-20T01:36:48.285Z,77.75
2018-07-20T01:37:56.353Z,77.94
2018-07-20T01:39:04.422Z,78.61
2018-07-20T01:40:12.493Z,78.42
2018-07-20T01:41:20.568Z,78.99
2018-07-20T01:42:28.834Z,79.18
2018-07-20T01:43:36.905Z,79.85
2018-07-20T01:44:46.627Z,79.81
2018-07-20T01:45:53.038Z,79.66
2018-07-20T01:47:01.466Z,80.24
2018-07-20T01:48:09.220Z,80.52
2018-07-20T01:49:17.502Z,79.91
2018-07-20T01:50:25.296Z,80.38
2018-07-20T01:51:33.377Z,80.77
2018-07-20T01:52:41.479Z,81.15
2018-07-20T01:53:49.512Z,81.15
2018-07-20T01:54:57.656Z,81.54
2018-07-20T01:56:05.613Z,81.54
2018-07-20T01:57:13.749Z,81.34
2018-07-20T01:58:22.126Z,81.34
2018-07-20T01:59:29.853Z,81.63
2018-07-20T02:00:37.967Z,81.73
2018-07-20T02:01:46.015Z,81.44
2018-07-20T02:02:54.377Z,82.11
2018-07-20T02:04:02.177Z,81.82
2018-07-20T02:05:10.189Z,81.15
2018-07-20T02:06:18.261Z,82.01
2018-07-20T02:07:26.329Z,82.11
2018-07-20T02:08:34.402Z,82.64
2018-07-20T02:09:42.461Z,83.22
2018-07-20T02:10:50.524Z,82.45
2018-07-20T02:11:58.966Z,82.54
2018-07-20T02:13:06.659Z,82.74
2018-07-20T02:14:14.760Z,82.45
2018-07-20T02:15:22.779Z,82.83
2018-07-20T02:16:30.839Z,83.03
2018-07-20T02:17:38.922Z,83.12
2018-07-20T02:18:46.979Z,83.22
2018-07-20T02:19:55.040Z,83.31
2018-07-20T02:21:03.475Z,84.08
2018-07-20T02:22:11.297Z,83.12
2018-07-20T02:23:19.256Z,83.40
2018-07-20T02:24:27.335Z,84.17
2018-07-20T02:25:35.362Z,83.40
2018-07-20T02:26:43.723Z,83.22
2018-07-20T02:27:51.565Z,83.40
2018-07-20T02:28:59.604Z,83.31
2018-07-20T02:30:08.016Z,83.50
2018-07-20T02:31:15.710Z,82.83
2018-07-20T02:32:23.786Z,84.08
2018-07-20T02:33:31.891Z,83.60
2018-07-20T02:34:40.179Z,83.22
2018-07-20T02:35:47.996Z,83.40
2018-07-20T02:36:56.055Z,83.50
2018-07-20T02:38:04.146Z,83.03
2018-07-20T02:39:12.182Z,83.31
2018-07-20T02:40:20.436Z,83.69
2018-07-20T02:41:28.514Z,84.08
2018-07-20T02:42:36.818Z,83.50
2018-07-20T02:43:44.635Z,83.98
2018-07-20T02:44:52.709Z,83.50
2018-07-20T02:46:00.773Z,83.22
2018-07-20T02:47:08.880Z,83.40
2018-07-20T02:48:16.900Z,83.50
2018-07-20T02:49:24.960Z,83.31
2018-07-20T02:50:33.239Z,83.22
2018-07-20T02:51:41.317Z,83.79
2018-07-20T02:52:49.413Z,84.08
2018-07-20T02:53:57.436Z,83.60
2018-07-20T02:55:05.469Z,83.40
2018-07-20T02:56:13.556Z,82.74
2018-07-20T02:57:21.639Z,83.79
2018-07-20T02:58:29.690Z,84.08
2018-07-20T02:59:37.743Z,84.27
2018-07-20T03:00:45.828Z,84.08
2018-07-20T03:01:53.896Z,83.60
2018-07-20T03:03:01.959Z,84.27
2018-07-20T03:04:10.024Z,84.17
2018-07-20T03:05:18.288Z,83.89
2018-07-20T03:06:26.361Z,83.89
2018-07-20T03:07:34.432Z,83.22
2018-07-20T03:08:42.496Z,84.08
2018-07-20T03:09:50.545Z,84.08
2018-07-20T03:10:58.620Z,84.65
2018-07-20T03:12:06.736Z,84.08
2018-07-20T03:13:14.749Z,84.75
2018-07-20T03:14:22.817Z,84.65
2018-07-20T03:15:30.889Z,84.75
2018-07-20T03:16:38.998Z,84.94
2018-07-20T03:17:47.017Z,84.17
2018-07-20T03:18:55.280Z,84.55
2018-07-20T03:20:03.345Z,84.75
2018-07-20T03:21:11.510Z,85.03
2018-07-20T03:22:19.488Z,85.22
2018-07-20T03:23:30.623Z,84.08
2018-07-20T03:24:35.589Z,84.55
2018-07-20T03:25:43.696Z,84.84
2018-07-20T03:26:51.753Z,85.22
2018-07-20T03:27:59.818Z,84.55
2018-07-20T03:29:07.934Z,84.75
2018-07-20T03:30:15.933Z,83.89
2018-07-20T03:31:24.021Z,84.55
2018-07-20T03:32:32.081Z,85.32
2018-07-20T03:33:40.505Z,84.17
2018-07-20T03:34:48.221Z,85.22
2018-07-20T03:35:56.279Z,85.41
2018-07-20T03:37:04.347Z,83.03
2018-07-20T03:38:12.676Z,83.31
2018-07-20T03:39:20.477Z,83.40
2018-07-20T03:40:28.543Z,84.36
2018-07-20T03:41:36.604Z,83.98
2018-07-20T03:42:44.866Z,84.46
2018-07-20T03:43:54.020Z,85.13
2018-07-20T03:45:01.015Z,85.22
2018-07-20T03:46:09.081Z,84.55
2018-07-20T03:47:17.515Z,84.55
2018-07-20T03:48:25.194Z,84.46
2018-07-20T03:49:33.277Z,84.36
2018-07-20T03:50:41.348Z,84.36
2018-07-20T03:51:49.415Z,83.40
2018-07-20T03:52:57.479Z,83.40
2018-07-20T03:54:05.528Z,84.65
2018-07-20T03:55:13.616Z,84.94
2018-07-20T03:56:21.713Z,85.03
2018-07-20T03:57:29.748Z,85.41
2018-07-20T03:58:37.901Z,85.22
2018-07-20T03:59:46.225Z,84.36
2018-07-20T04:00:53.939Z,84.75
2018-07-20T04:02:02.273Z,84.84
2018-07-20T04:03:10.086Z,85.13
2018-07-20T04:04:18.135Z,84.94
2018-07-20T04:05:26.248Z,85.03
2018-07-20T04:06:34.279Z,85.13
2018-07-20T04:07:43.372Z,85.22
2018-07-20T04:08:50.408Z,85.41
2018-07-20T04:09:58.467Z,85.71
2018-07-20T04:11:06.627Z,84.94
2018-07-20T04:12:14.650Z,85.32
2018-07-20T04:13:22.758Z,85.51
2018-07-20T04:14:30.748Z,85.51
2018-07-20T04:15:39.415Z,85.61
2018-07-20T04:16:46.877Z,86.04
2018-07-20T04:17:54.935Z,85.46
2018-07-20T04:19:03.376Z,86.13
2018-07-20T04:20:11.126Z,85.61
2018-07-20T04:21:19.147Z,85.65
2018-07-20T04:22:27.217Z,85.51
2018-07-20T04:23:35.272Z,85.46
2018-07-20T04:24:43.343Z,85.75
2018-07-20T04:25:52.620Z,85.65
2018-07-20T04:26:59.476Z,85.46
2018-07-20T04:28:07.591Z,85.27
2018-07-20T04:29:15.604Z,85.65
2018-07-20T04:30:23.689Z,84.22
2018-07-20T04:31:31.758Z,84.41
2018-07-20T04:32:39.848Z,84.31
2018-07-20T04:33:47.886Z,83.97
2018-07-20T04:34:55.926Z,83.30
2018-07-20T04:36:04.013Z,83.54
2018-07-20T04:37:12.094Z,84.06
2018-07-20T04:38:20.136Z,83.97
2018-07-20T04:39:28.205Z,84.26
2018-07-20T04:40:36.352Z,83.59
2018-07-20T04:41:44.344Z,82.63
2018-07-20T04:42:52.439Z,82.15
2018-07-20T04:44:00.475Z,81.67
2018-07-20T04:45:08.545Z,82.15
2018-07-20T04:46:16.619Z,82.15
2018-07-20T04:47:24.685Z,82.63
2018-07-20T04:48:32.745Z,82.24
2018-07-20T04:49:41.073Z,82.15
2018-07-20T04:50:49.516Z,83.30
2018-07-20T04:51:56.949Z,82.48
2018-07-20T04:53:05.000Z,82.57
2018-07-20T04:54:13.088Z,82.57
2018-07-20T04:55:21.144Z,82.48
2018-07-20T04:56:29.217Z,82.67
2018-07-20T04:57:37.314Z,82.00
2018-07-20T04:58:45.358Z,82.00
2018-07-20T04:59:53.426Z,81.62
2018-07-20T05:01:01.481Z,81.81
2018-07-20T05:02:10.989Z,81.23
2018-07-20T05:03:17.816Z,81.52
2018-07-20T05:04:25.991Z,82.09
2018-07-20T05:05:34.170Z,82.09
2018-07-20T05:06:42.194Z,81.81
2018-07-20T05:07:50.238Z,81.37
2018-07-20T05:08:58.342Z,80.89
2018-07-20T05:10:06.658Z,78.82
2018-07-20T05:11:18.172Z,77.80
2018-07-20T05:12:23.749Z,76.46
2018-07-20T05:13:31.800Z,76.12
2018-07-20T05:14:39.354Z,76.59
2018-07-20T05:15:47.168Z,76.12
2018-07-20T05:16:56.249Z,76.69
2018-07-20T05:18:03.301Z,76.27
2018-07-20T05:19:12.986Z,76.65
2018-07-20T05:20:19.991Z,77.42
2018-07-20T05:21:27.772Z,77.71
2018-07-20T05:22:35.542Z,77.33
2018-07-20T05:23:43.642Z,77.61
2018-07-20T05:24:51.758Z,77.33
2018-07-20T05:25:59.775Z,77.13
2018-07-20T05:27:07.852Z,78.00
2018-07-20T05:28:15.897Z,77.80
2018-07-20T05:29:23.987Z,77.51
2018-07-20T05:30:32.055Z,78.19
2018-07-20T05:31:40.131Z,78.19
2018-07-20T05:32:48.195Z,78.77
2018-07-20T05:33:56.510Z,78.67
2018-07-20T05:35:04.326Z,77.80
2018-07-20T05:36:14.711Z,78.19
2018-07-20T05:37:20.476Z,78.09
2018-07-20T05:38:28.790Z,78.09
2018-07-20T05:39:39.650Z,78.09
2018-07-20T05:41:58.612Z,77.23
2018-07-20T05:44:20.396Z,77.46
2018-07-20T05:45:28.448Z,77.17
2018-07-20T05:46:36.521Z,77.26
2018-07-20T05:47:44.573Z,77.56
2018-07-20T05:48:52.646Z,76.69
2018-07-20T05:51:17.270Z,77.46
2018-07-20T05:52:25.393Z,77.59
2018-07-20T05:53:30.412Z,77.69
2018-07-20T05:54:38.440Z,77.59
2018-07-20T05:55:46.505Z,76.92
2018-07-20T05:56:54.579Z,77.69
2018-07-20T05:58:02.749Z,76.64
2018-07-20T05:59:11.773Z,76.06
2018-07-20T06:00:19.074Z,75.38
2018-07-20T06:01:27.102Z,74.04
2018-07-20T06:02:34.927Z,74.17
2018-07-20T06:03:42.980Z,74.46
2018-07-20T06:04:51.262Z,75.90
2018-07-20T06:05:59.356Z,71.67
2018-07-20T06:07:07.665Z,72.64
2018-07-20T06:08:15.427Z,72.06
2018-07-20T06:09:23.528Z,69.75
2018-07-20T06:10:31.608Z,71.42
2018-07-20T06:11:40.031Z,72.29
2018-07-20T06:12:47.733Z,72.58
2018-07-20T06:13:56.053Z,70.37
2018-07-20T06:15:04.868Z,70.50
2018-07-20T06:16:12.942Z,68.57
2018-07-20T06:17:21.018Z,68.09
2018-07-20T06:18:29.088Z,69.34
2018-07-20T06:19:37.343Z,67.45
2018-07-20T06:20:46.441Z,67.26
2018-07-20T06:21:53.739Z,68.22
2018-07-20T06:23:01.569Z,67.07
2018-07-20T06:24:09.640Z,68.54
2018-07-20T06:25:17.905Z,68.84
2018-07-20T06:26:25.960Z,68.35
2018-07-20T06:27:34.046Z,66.42
2018-07-20T06:28:42.120Z,64.02
2018-07-20T06:29:50.183Z,63.64
2018-07-20T06:32:15.379Z,65.08
2018-07-20T06:33:23.471Z,67.49
2018-07-20T06:34:31.649Z,67.97
2018-07-20T06:35:39.630Z,67.87
2018-07-20T06:36:47.712Z,67.68
2018-07-20T06:37:55.962Z,67.49
2018-07-20T06:39:04.297Z,64.98
2018-07-20T06:40:12.111Z,63.25
2018-07-20T06:41:20.158Z,63.47
2018-07-20T06:42:28.235Z,63.64
2018-07-20T06:43:36.317Z,65.40
2018-07-20T06:44:44.383Z,63.85
2018-07-20T06:45:52.555Z,62.03
2018-07-20T06:47:00.868Z,61.55
2018-07-20T06:48:08.589Z,63.09
2018-07-20T06:49:16.669Z,64.37
2018-07-20T06:50:24.740Z,63.41
2018-07-20T06:51:32.809Z,63.21
2018-07-20T06:52:41.132Z,62.25
2018-07-20T06:53:48.950Z,60.90
2018-07-20T06:54:57.024Z,60.06
2018-07-20T06:56:05.069Z,60.35
2018-07-20T06:57:13.156Z,59.48
2018-07-20T06:58:21.221Z,59.13
2018-07-20T06:59:29.309Z,59.80
2018-07-20T07:00:37.382Z,60.38
2018-07-20T07:01:45.421Z,59.90
2018-07-20T07:02:53.517Z,57.97
2018-07-20T07:04:01.847Z,59.03
2018-07-20T07:05:09.661Z,60.99
2018-07-20T07:06:17.987Z,61.09
2018-07-20T07:07:25.783Z,59.64
2018-07-20T07:08:33.881Z,57.71
2018-07-20T07:09:41.944Z,57.52
2018-07-20T07:10:50.059Z,57.42
2018-07-20T07:11:58.097Z,57.14
2018-07-20T07:13:06.153Z,58.00
2018-07-20T07:14:14.229Z,59.55
2018-07-20T07:15:22.396Z,60.71
2018-07-20T07:16:30.388Z,57.81
2018-07-20T07:17:38.451Z,56.68
2018-07-20T07:18:46.628Z,55.90
2018-07-20T07:19:54.598Z,56.77
2018-07-20T07:21:02.664Z,56.22
2018-07-20T07:22:10.738Z,57.48
2018-07-20T07:24:31.116Z,54.93
2018-07-20T07:25:39.183Z,54.66
2018-07-20T07:26:47.269Z,52.85
2018-07-20T07:27:55.349Z,52.49
2018-07-20T07:29:03.462Z,50.70
2018-07-20T07:30:11.494Z,49.17
2018-07-20T07:31:19.565Z,45.92
2018-07-20T07:32:27.636Z,45.75
2018-07-20T07:33:35.675Z,47.61
2018-07-20T07:34:43.878Z,44.55
2018-07-20T07:35:51.903Z,45.06
2018-07-20T07:36:59.944Z,45.08
2018-07-20T07:38:08.013Z,44.71
2018-07-20T07:39:16.077Z,44.24
2018-07-20T07:40:24.156Z,41.35
2018-07-20T07:41:32.251Z,39.31
2018-07-20T07:42:41.376Z,39.62
2018-07-20T07:43:48.375Z,40.21
2018-07-20T07:44:56.558Z,40.41
2018-07-20T07:46:04.542Z,40.43
2018-07-20T07:47:16.450Z,37.71
2018-07-20T07:48:24.303Z,38.40
2018-07-20T07:49:32.403Z,37.14
2018-07-20T07:50:40.478Z,37.83
2018-07-20T07:51:48.544Z,36.75
2018-07-20T07:52:56.637Z,38.02
2018-07-20T07:54:04.716Z,38.61
2018-07-20T07:55:12.792Z,38.51
2018-07-20T07:56:20.866Z,37.85
2018-07-20T07:57:28.951Z,39.14
2018-07-20T07:58:37.038Z,37.57
2018-07-20T07:59:45.109Z,36.80
2018-07-20T08:00:53.185Z,37.39
2018-07-20T08:02:01.285Z,37.29
2018-07-20T08:03:10.058Z,36.51
2018-07-20T08:04:18.053Z,35.14
2018-07-20T08:05:26.257Z,35.81
2018-07-20T08:06:34.470Z,34.36
2018-07-20T08:07:42.378Z,35.53
2018-07-20T08:08:50.376Z,35.94
2018-07-20T08:09:58.598Z,36.14
2018-07-20T08:11:06.629Z,34.98
2018-07-20T08:12:14.620Z,32.45
2018-07-20T08:13:22.697Z,34.90
2018-07-20T08:14:30.776Z,35.57
2018-07-20T08:15:38.921Z,34.47
2018-07-20T08:16:46.950Z,34.18
2018-07-20T08:17:55.027Z,35.25
2018-07-20T08:19:03.118Z,33.41
2018-07-20T08:20:11.199Z,34.30
2018-07-20T08:21:19.638Z,36.08
2018-07-20T08:22:27.368Z,35.29
2018-07-20T08:23:36.132Z,36.39
2018-07-20T08:24:43.539Z,35.89
2018-07-20T08:25:51.621Z,35.70
2018-07-20T08:26:59.688Z,34.23
2018-07-20T08:28:07.779Z,33.54
2018-07-20T08:29:15.856Z,33.44
2018-07-20T08:30:23.940Z,34.03
2018-07-20T08:31:32.015Z,33.44
2018-07-20T08:32:40.115Z,34.01
2018-07-20T08:33:48.203Z,33.53
2018-07-20T08:34:56.531Z,33.64
2018-07-20T08:36:04.361Z,32.76
2018-07-20T08:37:12.453Z,33.54
2018-07-20T08:38:20.573Z,31.76
2018-07-20T08:39:28.629Z,33.62
2018-07-20T08:40:36.707Z,34.80
2018-07-20T08:41:44.784Z,32.54
2018-07-20T08:42:52.876Z,35.27
2018-07-20T08:44:00.952Z,33.70
2018-07-20T08:45:09.236Z,33.53
2018-07-20T08:46:17.326Z,33.33
2018-07-20T08:47:25.384Z,33.53
2018-07-20T08:48:33.488Z,35.27
2018-07-20T08:49:41.578Z,36.27
2018-07-20T08:50:49.663Z,35.37
2018-07-20T08:51:58.258Z,34.21
2018-07-20T08:53:06.035Z,32.92
2018-07-20T08:54:14.467Z,33.22
2018-07-20T08:55:22.217Z,33.92
2018-07-20T08:56:30.296Z,32.35
2018-07-20T08:57:38.380Z,33.25
2018-07-20T08:58:46.465Z,33.05
2018-07-20T08:59:54.626Z,33.05
2018-07-20T09:01:02.640Z,32.46
2018-07-20T09:02:10.720Z,34.92
2018-07-20T09:03:18.794Z,35.10
2018-07-20T09:04:26.890Z,35.78
2018-07-20T09:05:34.959Z,33.72
2018-07-20T09:06:43.049Z,33.41
2018-07-20T09:07:51.150Z,36.04
2018-07-20T09:08:59.323Z,37.31
2018-07-20T09:10:07.357Z,35.27
2018-07-20T09:11:15.378Z,36.43
2018-07-20T09:12:23.471Z,35.16
2018-07-20T09:13:31.837Z,33.87
2018-07-20T09:14:39.853Z,34.64
2018-07-20T09:15:48.200Z,36.57
2018-07-20T09:16:55.999Z,40.17
2018-07-20T09:18:04.107Z,39.39
2018-07-20T09:19:12.175Z,37.71
2018-07-20T09:20:20.464Z,39.06
2018-07-20T09:21:28.563Z,39.94
2018-07-20T09:22:36.826Z,37.87
2018-07-20T09:23:44.916Z,38.73
2018-07-20T09:24:53.100Z,40.35
2018-07-20T09:26:01.092Z,42.08
2018-07-20T09:27:09.152Z,41.69
2018-07-20T09:28:17.297Z,43.43
2018-07-20T09:29:25.328Z,43.40
2018-07-20T09:30:35.809Z,44.20
2018-07-20T09:31:43.908Z,44.69
2018-07-20T09:32:51.987Z,44.20
2018-07-20T09:34:00.087Z,43.43
2018-07-20T09:35:08.407Z,44.09
2018-07-20T09:36:16.211Z,44.76
2018-07-20T09:37:24.299Z,44.18
2018-07-20T09:38:32.364Z,44.57
2018-07-20T09:39:40.440Z,44.84
2018-07-20T09:40:48.536Z,43.87
2018-07-20T09:41:56.624Z,47.47
2018-07-20T09:43:04.693Z,48.07
2018-07-20T09:44:12.762Z,46.81
2018-07-20T09:45:20.852Z,45.35
2018-07-20T09:46:28.921Z,44.96
2018-07-20T09:47:36.985Z,44.86
2018-07-20T09:48:45.053Z,46.71
2018-07-20T09:49:53.148Z,44.18
2018-07-20T09:51:01.231Z,43.91
2018-07-20T09:52:09.306Z,45.94
2018-07-20T09:53:17.383Z,44.09
2018-07-20T09:54:25.444Z,42.72
2018-07-20T09:55:33.532Z,46.03
2018-07-20T09:56:41.697Z,46.98
2018-07-20T09:57:49.720Z,47.39
2018-07-20T09:58:57.765Z,45.06
2018-07-20T10:00:05.814Z,46.23
2018-07-20T10:01:13.929Z,45.15
2018-07-20T10:02:21.987Z,45.25
2018-07-20T10:03:30.339Z,45.94
2018-07-20T10:04:38.153Z,47.78
2018-07-20T10:05:46.281Z,46.61
2018-07-20T10:06:54.309Z,43.91
2018-07-20T10:08:02.384Z,43.04
2018-07-20T10:09:10.445Z,45.08
2018-07-20T10:10:18.518Z,43.91
2018-07-20T10:11:26.598Z,44.98
2018-07-20T10:12:35.035Z,44.20
2018-07-20T10:13:42.761Z,43.13
2018-07-20T10:14:50.838Z,44.20
2018-07-20T10:15:59.277Z,46.25
2018-07-20T10:17:06.983Z,43.52
2018-07-20T10:18:15.050Z,44.59
2018-07-20T10:19:23.137Z,45.00
2018-07-20T10:20:31.207Z,44.23
2018-07-20T10:21:39.296Z,43.84
2018-07-20T10:22:47.372Z,43.93
2018-07-20T10:23:55.697Z,42.30
2018-07-20T10:25:03.533Z,41.63
2018-07-20T10:26:11.603Z,43.10
2018-07-20T10:27:19.675Z,40.76
2018-07-20T10:28:28.108Z,41.05
2018-07-20T10:29:35.805Z,39.00
2018-07-20T10:30:43.971Z,39.10
2018-07-20T10:31:51.980Z,39.78
2018-07-20T10:33:00.067Z,41.63
2018-07-20T10:34:08.146Z,38.71
2018-07-20T10:35:16.213Z,38.98
2018-07-20T10:36:24.279Z,40.17
2018-07-20T10:37:36.428Z,37.93
2018-07-20T10:38:40.444Z,40.17
2018-07-20T10:39:48.769Z,40.27
2018-07-20T10:40:56.584Z,39.20
2018-07-20T10:42:04.676Z,41.36
2018-07-20T10:43:13.025Z,40.39
2018-07-20T10:44:20.830Z,43.22
2018-07-20T10:45:30.290Z,40.68
2018-07-20T10:46:36.973Z,40.68
2018-07-20T10:47:45.049Z,41.75
2018-07-20T10:48:53.126Z,42.24
2018-07-20T10:50:04.310Z,41.83
2018-07-20T10:51:10.283Z,43.19
2018-07-20T10:52:18.707Z,44.07
2018-07-20T10:53:26.433Z,44.95
2018-07-20T10:54:34.525Z,45.05
2018-07-20T10:55:42.576Z,43.12
2018-07-20T10:56:50.658Z,41.46
2018-07-20T10:57:58.746Z,42.24
2018-07-20T10:59:06.817Z,41.38
2018-07-20T11:00:14.897Z,42.26
2018-07-20T11:01:23.007Z,38.16
2018-07-20T11:02:31.047Z,39.43
2018-07-20T11:03:39.134Z,40.82
2018-07-20T11:04:47.241Z,40.23
2018-07-20T11:05:55.241Z,39.04
2018-07-20T11:07:03.350Z,40.01
2018-07-20T11:08:11.424Z,42.07
2018-07-20T11:09:19.495Z,41.19
2018-07-20T11:10:27.573Z,41.38
2018-07-20T11:11:35.654Z,39.82
2018-07-20T11:12:43.734Z,40.11
2018-07-20T11:13:51.817Z,37.87
2018-07-20T11:14:59.923Z,41.87
2018-07-20T11:16:07.965Z,44.68
2018-07-20T11:17:16.126Z,40.60
2018-07-20T11:18:24.147Z,39.92
2018-07-20T11:19:32.182Z,41.38
2018-07-20T11:20:40.477Z,42.07
2018-07-20T11:21:48.567Z,40.21
2018-07-20T11:22:56.675Z,37.57
2018-07-20T11:24:04.743Z,39.70
2018-07-20T11:25:12.765Z,41.28
2018-07-20T11:26:20.923Z,38.65
2018-07-20T11:27:28.997Z,38.75
2018-07-20T11:28:37.008Z,37.95
2018-07-20T11:29:45.066Z,40.19
2018-07-20T11:30:53.468Z,39.22
2018-07-20T11:32:01.340Z,40.19
2018-07-20T11:33:09.573Z,41.27
2018-07-20T11:34:17.392Z,41.85
2018-07-20T11:35:25.463Z,42.73
2018-07-20T11:36:33.540Z,41.36
2018-07-20T11:37:41.663Z,43.53
2018-07-20T11:38:49.701Z,41.28
2018-07-20T11:39:57.777Z,40.31
2018-07-20T11:41:05.831Z,39.23
2018-07-20T11:42:14.973Z,39.23
2018-07-20T11:43:22.007Z,39.04
2018-07-20T11:44:30.089Z,40.01
2018-07-20T11:45:38.153Z,38.75
2018-07-20T11:46:46.232Z,37.09
2018-07-20T11:47:54.305Z,39.43
2018-07-20T11:49:02.490Z,37.77
2018-07-20T11:50:10.464Z,37.89
2018-07-20T11:51:18.551Z,39.26
2018-07-20T11:52:26.613Z,39.28
2018-07-20T11:53:34.716Z,38.71
2018-07-20T11:54:42.764Z,40.00
2018-07-20T11:55:50.839Z,35.89
2018-07-20T11:56:58.915Z,34.74
2018-07-20T11:58:07.009Z,35.53
2018-07-20T11:59:15.057Z,33.97
2018-07-20T12:00:23.148Z,32.79
2018-07-20T12:01:31.223Z,37.39
2018-07-20T12:02:39.315Z,34.16
2018-07-20T12:03:47.376Z,36.33
2018-07-20T12:04:55.443Z,36.71
2018-07-20T12:06:03.539Z,36.32
2018-07-20T12:07:11.619Z,33.85
2018-07-20T12:08:19.696Z,35.21
2018-07-20T12:09:27.764Z,34.11
2018-07-20T12:10:35.837Z,34.68
2018-07-20T12:11:43.931Z,33.90
2018-07-20T12:12:52.002Z,36.23
2018-07-20T12:14:00.085Z,39.26
2018-07-20T12:15:08.168Z,37.77
2018-07-20T12:16:16.229Z,38.65
2018-07-20T12:17:24.327Z,37.37
2018-07-20T12:18:32.602Z,39.41
2018-07-20T12:19:40.677Z,36.27
2018-07-20T12:20:48.745Z,37.25
2018-07-20T12:21:56.831Z,38.40
2018-07-20T12:23:04.902Z,39.86
2018-07-20T12:24:13.014Z,39.94
2018-07-20T12:25:21.048Z,40.03
2018-07-20T12:26:29.134Z,41.50
2018-07-20T12:27:37.471Z,41.96
2018-07-20T12:28:45.260Z,43.04
2018-07-20T12:29:53.416Z,42.45
2018-07-20T12:31:01.439Z,44.59
2018-07-20T12:32:09.505Z,43.89
2018-07-20T12:33:17.584Z,43.99
2018-07-20T12:34:25.636Z,45.15
2018-07-20T12:35:33.737Z,44.09
2018-07-20T12:36:41.810Z,44.57
2018-07-20T12:37:49.888Z,44.57
2018-07-20T12:38:58.020Z,45.52
2018-07-20T12:40:06.036Z,45.42
2018-07-20T12:41:14.144Z,45.14
2018-07-20T12:42:22.191Z,44.65
2018-07-20T12:43:30.262Z,46.69
2018-07-20T12:44:38.340Z,47.47
2018-07-20T12:45:46.417Z,46.98
2018-07-20T12:46:54.498Z,46.78
2018-07-20T12:48:02.570Z,47.27
2018-07-20T12:49:10.657Z,47.37
2018-07-20T12:50:18.772Z,45.62
2018-07-20T12:51:27.045Z,47.66
2018-07-20T12:52:34.866Z,49.90
2018-07-20T12:53:42.949Z,49.90
2018-07-20T12:54:51.601Z,49.99
2018-07-20T12:55:59.103Z,50.29
2018-07-20T12:57:07.181Z,49.99
2018-07-20T12:58:15.266Z,50.19
2018-07-20T12:59:23.321Z,47.96
2018-07-20T13:00:31.383Z,47.27
2018-07-20T13:01:39.472Z,47.47
2018-07-20T13:02:47.800Z,48.83
2018-07-20T13:03:55.799Z,46.69
2018-07-20T13:05:03.896Z,46.30
2018-07-20T13:06:11.965Z,46.88
2018-07-20T13:07:20.319Z,47.96
2018-07-20T13:08:28.120Z,48.63
2018-07-20T13:09:36.228Z,47.86
2018-07-20T13:10:44.282Z,47.76
2018-07-20T13:11:52.501Z,47.76
2018-07-20T13:13:00.456Z,46.61
2018-07-20T13:14:08.497Z,46.13
2018-07-20T13:15:16.571Z,46.91
2018-07-20T13:16:24.653Z,45.94
2018-07-20T13:17:32.726Z,46.59
2018-07-20T13:18:40.817Z,47.56
2018-07-20T13:19:48.894Z,48.75
2018-07-20T13:20:56.959Z,49.05
2018-07-20T13:22:05.125Z,50.12
2018-07-20T13:23:13.109Z,47.88
2018-07-20T13:24:21.179Z,47.37
2018-07-20T13:25:29.246Z,48.93
2018-07-20T13:26:37.314Z,50.87
2018-07-20T13:27:45.405Z,45.74
2018-07-20T13:28:53.485Z,49.02
2018-07-20T13:30:02.572Z,48.83
2018-07-20T13:31:09.718Z,49.12
2018-07-20T13:32:17.710Z,48.93
2018-07-20T13:33:25.748Z,48.93
2018-07-20T13:34:33.848Z,46.98
2018-07-20T13:35:42.973Z,47.96
2018-07-20T13:36:49.998Z,47.47
2018-07-20T13:37:58.097Z,48.15
2018-07-20T13:39:06.153Z,47.56
2018-07-20T13:40:14.277Z,47.56
2018-07-20T13:41:22.348Z,47.08
2018-07-20T13:42:30.430Z,48.44
2018-07-20T13:43:38.547Z,49.12
2018-07-20T13:44:46.529Z,51.26
2018-07-20T13:45:54.609Z,48.93
2018-07-20T13:47:02.683Z,48.54
2018-07-20T13:48:10.781Z,49.22
2018-07-20T13:49:18.832Z,47.96
2018-07-20T13:50:26.898Z,45.01
2018-07-20T13:51:34.987Z,45.69
2018-07-20T13:52:43.124Z,46.47
2018-07-20T13:53:51.137Z,46.86
2018-07-20T13:54:59.214Z,47.44
2018-07-20T13:56:07.277Z,44.92
2018-07-20T13:57:15.326Z,45.42
2018-07-20T13:58:23.450Z,47.47
2018-07-20T13:59:31.504Z,48.05
2018-07-20T14:00:39.579Z,48.54
2018-07-20T14:01:47.928Z,47.86
2018-07-20T14:02:55.719Z,46.20
2018-07-20T14:04:03.794Z,43.19
2018-07-20T14:05:11.900Z,45.11
2018-07-20T14:06:19.954Z,43.38
2018-07-20T14:07:28.041Z,43.95
2018-07-20T14:08:36.111Z,44.62
2018-07-20T14:09:44.190Z,44.43
2018-07-20T14:10:52.525Z,44.62
2018-07-20T14:12:00.337Z,44.12
2018-07-20T14:13:08.420Z,45.09
2018-07-20T14:14:17.687Z,45.87
2018-07-20T14:15:24.878Z,46.35
2018-07-20T14:16:33.073Z,45.77
2018-07-20T14:17:41.117Z,44.29
2018-07-20T14:18:49.358Z,45.07
2018-07-20T14:19:57.261Z,46.42
2018-07-20T14:21:05.327Z,46.04
2018-07-20T14:22:13.415Z,44.68
2018-07-20T14:23:21.499Z,45.53
2018-07-20T14:24:29.580Z,45.72
2018-07-20T14:25:37.652Z,45.53
2018-07-20T14:26:45.683Z,46.21
2018-07-20T14:27:53.785Z,46.60
2018-07-20T14:29:01.873Z,44.64
2018-07-20T14:30:09.924Z,45.99
2018-07-20T14:31:18.002Z,47.16
2018-07-20T14:32:26.437Z,48.03
2018-07-20T14:33:34.145Z,48.59
2018-07-20T14:34:42.516Z,47.72
2018-07-20T14:35:50.306Z,46.26
2018-07-20T14:36:58.371Z,50.89
2018-07-20T14:38:06.449Z,52.93
2018-07-20T14:39:14.534Z,51.28
2018-07-20T14:40:22.603Z,49.63
2018-07-20T14:41:30.678Z,47.69
2018-07-20T14:42:38.751Z,46.92